• Join FlightAware (Why Join?)
  • Login
  • US Flag 
02:29AM EDT


 

Airport Tracker/Info


-or-


 

Live Flight TrackerFlight Track Log ✈ UAL5863 ✈ 01-Aug-2013 ✈ KTVC - KORD

Flight Track Log - Related Links

Times and Time Zones

All times are in EDT time to prevent confusion due to time zone crossing. See the UAL5863 flight status page for this flight to view local times or setup timezone preferences in your user account.

Time Position Orientation Groundspeed Altitude Reporting Facility
EDT Latitude Longitude Course Direction KTS MPH feet Rate Location/Type
09:01AM 44.7392 -85.5356 190° South 152 175 1,800  Level Minneapolis Center
09:02AM 44.7722 -85.5058 33° Northeast 190 219 3,700 1,800 Climbing Minneapolis Center
09:03AM 44.7850 -85.5842 283° West 213 245 5,600 2,040 Climbing Minneapolis Center
09:04AM 44.4799 -85.5833 180° South  Level FlightAware Approximate
09:04AM 44.7133 -85.6044 191° South 261 300 8,000  Level Minneapolis Center
09:05AM 44.4166 -85.5959 190° South  Level FlightAware Approximate
09:05AM 44.6361 -85.6158 186° South 276 318 10,100  Level Minneapolis Center
09:06AM 44.3535 -85.6116 190° South  Level FlightAware Approximate
09:06AM 44.5514 -85.6350 189° South 301 346 11,000  Level Minneapolis Center
09:07AM 44.4508 -85.6544 188° South 355 409 12,100 1,380 Climbing Minneapolis Center
09:08AM 44.3500 -85.6739 188° South 364 419 13,900 1,680 Climbing Minneapolis Center
09:09AM 44.2508 -85.6931 188° South 361 415 15,600 1,800 Climbing Minneapolis Center
09:10AM 44.1336 -85.7158 188° South 356 410 17,700 1,740 Climbing Minneapolis Center
09:11AM 44.0517 -85.7317 188° South 349 402 19,300 1,080 Climbing Minneapolis Center
09:12AM 43.9333 -85.7550 188° South 355 409 20,000 300 Climbing Minneapolis Center
09:13AM 43.8258 -85.7914 194° South 394 453 20,000  Level Minneapolis Center
09:14AM 43.7367 -85.8811 216° Southwest 398 458 20,000  Level Minneapolis Center
09:15AM 43.6472 -85.9697 216° Southwest 397 457 20,000  Level Minneapolis Center
09:16AM 43.5925 -86.0222 215° Southwest 402 463 20,000  Level Chicago Center
09:17AM 43.5011 -86.1117 215° Southwest 404 465 20,000  Level Chicago Center
09:18AM 43.3919 -86.2181 215° Southwest 405 466 20,000  Level Chicago Center
09:19AM 43.3014 -86.3056 215° Southwest 402 463 20,000  Level Chicago Center
09:20AM 43.2114 -86.3939 216° Southwest 403 464 20,000  Level Chicago Center
09:21AM 43.1197 -86.4806 215° Southwest 404 465 20,000  Level Chicago Center
09:22AM 43.0108 -86.5853 215° Southwest 402 463 20,000 -240 Level Chicago Center
09:23AM 42.9194 -86.6725 215° Southwest 404 465 19,500 -1,020 Descending Chicago Center
09:24AM 42.8311 -86.7561 215° Southwest 393 452 17,900 -1,800 Descending Chicago Center
09:25AM 42.7431 -86.8406 215° Southwest 391 450 15,800 -2,160 Descending Chicago Center
09:26AM 42.6567 -86.9208 214° Southwest 381 438 13,500 -2,100 Descending Chicago Center
09:27AM 42.5756 -86.9981 215° Southwest 364 419 11,500 -1,740 Descending Chicago Center
09:28AM 42.4806 -87.0872 215° Southwest 349 402 10,000 -900 Descending Chicago Center
09:29AM 42.4367 -87.1756 236° Southwest 279 321 9,700 -720 Descending Chicago Center
09:30AM 42.4119 -87.2672 250° West 261 300 8,600 -1,140 Descending Chicago Center
09:31AM 42.3903 -87.3453 249° West 222 255 7,400 -1,260 Descending Chicago Center
09:32AM 42.3664 -87.4319 250° West 218 251 6,100 -720 Descending Chicago Center
09:33AM 42.3450 -87.5061 249° West 213 245 6,000  Descending Chicago Center
09:34AM 42.3119 -87.5550 228° Southwest 199 229 6,100  Climbing Chicago Center
09:35AM 42.2531 -87.5508 177° South 212 244 6,000  Descending Chicago Center
09:36AM 42.1858 -87.5400 173° South 208 239 6,100  Climbing Chicago Center
09:38AM 42.1314 -87.5050 155° Southeast 223 257 6,000  Descending Chicago Center
09:39AM 42.0736 -87.4556 148° Southeast 246 283 6,100  Climbing Chicago Center
09:40AM 41.9983 -87.4694 188° South 266 306 6,000  Descending Chicago Center
09:41AM 41.9817 -87.5622 256° West 256 295 6,100 -840 Climbing Chicago Center
09:42AM 41.9822 -87.6497 271° West 239 275 4,300 -1,440 Descending Chicago Center
09:43AM 41.9833 -87.7314 271° West 229 264 3,200 -1,140 Descending Chicago Center
09:44AM 41.9828 -87.8042 269° West 208 239 2,000 -960 Descending Chicago Center
09:45AM 41.9856 -87.8606 274° West 152 175 1,300 -720 Descending Chicago Center